Time;durP1;ratioP1;P1;durP2;ratioP2;P2;SDS_P1;SDS_P2;PMS_P1;PMS_P2;Temp;Humidity;BMP_temperature;BMP_pressure;BME280_temperature;BME280_humidity;BME280_pressure;Samples;Min_cycle;Max_cycle;Signal;HPM_P1;HPM_P2
2021/07/09 00:02:02;;;;;;;7.28;6.15;;;;;;;21.54;100.00;101441.59;1778184;79;20961;-46
2021/07/09 00:04:29;;;;;;;4.62;4.12;;;;;;;21.50;100.00;101442.88;1778354;79;20980;-47
2021/07/09 00:06:56;;;;;;;4.28;3.87;;;;;;;21.46;100.00;101444.13;1776482;79;20965;-45
2021/07/09 00:09:24;;;;;;;3.80;3.00;;;;;;;21.43;100.00;101442.56;1787454;79;20989;-45
2021/07/09 00:11:51;;;;;;;3.80;3.12;;;;;;;21.42;100.00;101439.97;1783025;79;20996;-45
2021/07/09 00:14:27;;;;;;;3.50;3.10;;;;;;;21.41;100.00;101436.41;1778335;79;21479;-43
2021/07/09 00:16:55;;;;;;;4.47;3.05;;;;;;;21.41;100.00;101433.69;1779462;79;20999;-43
2021/07/09 00:19:22;;;;;;;3.58;3.20;;;;;;;21.39;100.00;101439.74;1777394;79;20989;-44
2021/07/09 00:21:49;;;;;;;3.95;3.33;;;;;;;21.32;100.00;101431.28;1772116;79;20977;-42
2021/07/09 00:24:16;;;;;;;5.08;3.50;;;;;;;21.28;100.00;101437.11;1769508;79;20966;-41
2021/07/09 00:26:43;;;;;;;4.15;3.75;;;;;;;21.25;100.00;101435.53;1772974;79;20924;-43
2021/07/09 00:29:11;;;;;;;4.92;3.10;;;;;;;21.23;100.00;101436.66;1780933;79;20949;-43
2021/07/09 00:31:38;;;;;;;4.37;3.98;;;;;;;21.23;100.00;101433.95;1773547;79;20974;-46
2021/07/09 00:34:06;;;;;;;5.33;4.45;;;;;;;21.22;100.00;101432.22;1766694;79;20993;-43
2021/07/09 00:36:34;;;;;;;4.87;4.05;;;;;;;21.19;100.00;101431.99;1768349;79;20902;-43
2021/07/09 00:39:04;;;;;;;5.00;3.98;;;;;;;21.15;100.00;101434.63;1786388;79;20992;-46
2021/07/09 00:41:31;;;;;;;5.58;4.42;;;;;;;21.12;100.00;101431.70;1764415;79;21332;-50
2021/07/09 00:43:58;;;;;;;5.80;3.92;;;;;;;21.10;100.00;101437.74;1769568;79;20972;-47
2021/07/09 00:46:34;;;;;;;5.42;4.55;;;;;;;21.08;100.00;101437.02;1766523;79;21022;-47
2021/07/09 00:49:01;;;;;;;5.87;4.80;;;;;;;21.06;100.00;101438.14;1772314;79;20970;-46
2021/07/09 00:51:27;;;;;;;5.78;4.72;;;;;;;21.02;100.00;101434.86;1764881;79;20992;-43
2021/07/09 00:53:56;;;;;;;4.47;4.08;;;;;;;20.95;100.00;101429.10;1768366;79;20923;-47
2021/07/09 00:56:22;;;;;;;4.80;4.40;;;;;;;20.92;100.00;101431.23;1771801;79;20946;-45
2021/07/09 00:58:50;;;;;;;5.25;4.65;;;;;;;20.88;100.00;101427.91;1765233;79;20998;-45
2021/07/09 01:01:17;;;;;;;7.42;4.62;;;;;;;20.86;100.00;101431.25;1762135;79;21002;-46
2021/07/09 01:03:44;;;;;;;5.47;4.25;;;;;;;20.84;100.00;101431.02;1754613;80;20929;-44
2021/07/09 01:06:13;;;;;;;5.95;4.87;;;;;;;20.78;100.00;101427.00;1760152;80;20952;-45
2021/07/09 01:08:40;;;;;;;5.60;4.55;;;;;;;20.74;100.00;101426.92;1756121;80;20975;-44
2021/07/09 01:11:07;;;;;;;5.45;4.95;;;;;;;20.70;100.00;101427.67;1766702;80;20976;-44
2021/07/09 01:13:35;;;;;;;6.85;4.92;;;;;;;20.68;100.00;101424.73;1764564;80;20994;-45
2021/07/09 01:16:04;;;;;;;6.87;5.10;;;;;;;20.65;100.00;101425.00;1754750;80;21923;-46
2021/07/09 01:18:31;;;;;;;4.70;4.22;;;;;;;20.63;100.00;101422.91;1758219;80;21855;-43
2021/07/09 01:20:59;;;;;;;5.60;5.10;;;;;;;20.62;100.00;101419.35;1756563;80;20934;-42
2021/07/09 01:23:27;;;;;;;6.08;4.62;;;;;;;20.62;100.00;101421.21;1757308;80;20951;-44
2021/07/09 01:25:56;;;;;;;5.03;4.50;;;;;;;20.57;100.00;101416.69;1756554;80;20937;-46
2021/07/09 01:28:22;;;;;;;5.15;4.00;;;;;;;20.50;100.00;101418.52;1758519;80;20951;-44
2021/07/09 01:30:49;;;;;;;4.65;4.08;;;;;;;20.42;100.00;101417.47;1757805;80;21558;-44
2021/07/09 01:33:15;;;;;;;5.12;4.05;;;;;;;20.39;100.00;101419.09;1760372;80;20926;-44
2021/07/09 01:35:42;;;;;;;5.47;4.40;;;;;;;20.36;100.00;101418.86;1754532;80;20925;-46
2021/07/09 01:38:08;;;;;;;6.20;3.92;;;;;;;20.34;100.00;101419.98;1762638;80;20969;-46
2021/07/09 01:40:36;;;;;;;3.83;3.42;;;;;;;20.32;100.00;101412.83;1756507;80;20952;-45
2021/07/09 01:43:03;;;;;;;4.90;4.42;;;;;;;20.31;100.00;101413.83;1758815;80;20934;-44
2021/07/09 01:45:29;;;;;;;9.13;4.22;;;;;;;20.29;100.00;101407.67;1763399;80;20960;-44
2021/07/09 01:47:56;;;;;;;5.08;4.53;;;;;;;20.27;100.00;101404.23;1759146;80;20934;-45
2021/07/09 01:50:24;;;;;;;5.62;4.47;;;;;;;20.26;100.00;101405.23;1760305;80;21481;-44
2021/07/09 01:52:52;;;;;;;6.03;4.55;;;;;;;20.25;100.00;101422.95;1762891;80;21413;-43
2021/07/09 01:55:19;;;;;;;6.10;4.28;;;;;;;20.23;100.00;101414.09;1751978;80;20953;-42
2021/07/09 01:57:46;;;;;;;5.03;4.58;;;;;;;20.21;100.00;101417.42;1752001;80;20949;-44
2021/07/09 02:00:19;;;;;;;7.62;4.53;;;;;;;20.19;100.00;101417.58;1757966;80;21473;-44
2021/07/09 02:02:45;;;;;;;5.95;5.15;;;;;;;20.17;100.00;101420.05;1755109;80;20929;-44
2021/07/09 02:05:15;;;;;;;6.10;5.42;;;;;;;20.16;100.00;101425.08;1761779;79;20990;-45
2021/07/09 02:07:46;;;;;;;14.33;13.03;;;;;;;20.14;100.00;101424.38;1761157;80;21434;-45
2021/07/09 02:10:13;;;;;;;10.50;9.33;;;;;;;20.10;100.00;101426.46;1750452;80;20956;-44
2021/07/09 02:12:40;;;;;;;9.05;7.10;;;;;;;20.08;100.00;101429.78;1744117;80;21428;-45
2021/07/09 02:15:11;;;;;;;6.20;5.37;;;;;;;20.08;100.00;101430.67;1740272;80;20979;-46
2021/07/09 02:17:39;;;;;;;6.22;4.87;;;;;;;20.06;100.00;101427.73;1743144;80;20970;-46
2021/07/09 02:20:10;;;;;;;4.75;4.35;;;;;;;20.04;100.00;101433.75;1763714;80;20925;-47
2021/07/09 02:22:37;;;;;;;5.92;4.12;;;;;;;20.01;100.00;101436.22;1760769;80;21010;-48
2021/07/09 02:25:08;;;;;;;5.35;4.85;;;;;;;19.98;100.00;101429.72;1731750;81;21000;-48
2021/07/09 02:27:39;;;;;;;4.50;3.92;;;;;;;19.99;100.00;101440.05;1759051;80;21002;-47
2021/07/09 02:30:09;;;;;;;5.83;5.30;;;;;;;19.98;100.00;101433.78;1762443;80;20946;-47
2021/07/09 02:32:39;;;;;;;6.90;4.42;;;;;;;19.96;100.00;101435.75;1750549;80;20947;-48
2021/07/09 02:35:07;;;;;;;5.65;4.55;;;;;;;19.96;100.00;101433.52;1754447;80;20967;-48
2021/07/09 02:37:33;;;;;;;4.85;4.35;;;;;;;19.95;100.00;101439.42;1735844;81;21012;-47
2021/07/09 02:40:00;;;;;;;4.55;4.15;;;;;;;19.93;100.00;101443.24;1733290;81;20946;-47
2021/07/09 02:42:28;;;;;;;4.30;3.90;;;;;;;19.91;100.00;101442.03;1759732;80;20958;-43
2021/07/09 02:44:54;;;;;;;4.90;4.30;;;;;;;19.87;100.00;101439.20;1760997;80;20979;-45
2021/07/09 02:47:21;;;;;;;4.70;3.98;;;;;;;19.85;100.00;101442.53;1760265;80;20991;-45
2021/07/09 02:49:48;;;;;;;3.83;3.47;;;;;;;19.83;100.00;101448.55;1758596;80;21309;-44
2021/07/09 02:52:14;;;;;;;3.90;3.60;;;;;;;19.83;100.00;101446.73;1759576;80;20978;-42
2021/07/09 02:54:42;;;;;;;4.42;3.80;;;;;;;19.83;100.00;101443.14;1758502;80;20962;-44
2021/07/09 02:57:09;;;;;;;4.35;3.95;;;;;;;19.80;100.00;101442.05;1758105;80;21499;-43
2021/07/09 02:59:35;;;;;;;4.45;4.05;;;;;;;19.81;100.00;101441.08;1754989;80;21057;-44
2021/07/09 03:02:03;;;;;;;4.08;3.47;;;;;;;19.82;100.00;101446.34;1764221;80;20958;-45
2021/07/09 03:04:30;;;;;;;7.95;7.25;;;;;;;19.84;100.00;101441.67;1758445;80;20943;-45
2021/07/09 03:06:58;;;;;;;9.88;8.93;;;;;;;19.88;100.00;101445.86;1745445;80;20996;-46
2021/07/09 03:09:25;;;;;;;7.78;6.35;;;;;;;19.89;100.00;101450.27;1755545;80;20954;-47
2021/07/09 03:11:53;;;;;;;6.80;4.83;;;;;;;19.95;100.00;101448.04;1758946;80;21449;-46
2021/07/09 03:14:20;;;;;;;5.70;4.65;;;;;;;19.98;100.00;101441.02;1744930;80;20994;-46
2021/07/09 03:16:47;;;;;;;7.40;4.58;;;;;;;19.98;100.00;101439.19;1779461;79;21376;-47
2021/07/09 03:19:13;;;;;;;6.17;5.50;;;;;;;19.98;100.00;101447.78;1784501;79;21019;-47
2021/07/09 03:21:39;;;;;;;6.92;5.80;;;;;;;19.99;100.00;101442.75;1749671;80;21006;-44
2021/07/09 03:24:08;;;;;;;5.53;5.03;;;;;;;19.93;100.00;101442.74;1751167;80;21007;-44
2021/07/09 03:26:34;;;;;;;6.42;4.72;;;;;;;19.94;100.00;101449.05;1771946;79;20942;-44
2021/07/09 03:29:02;;;;;;;6.12;5.53;;;;;;;19.97;100.00;101444.22;1764269;79;20960;-45
2021/07/09 03:31:32;;;;;;;6.87;6.10;;;;;;;19.99;100.00;101446.31;1782158;79;20946;-42
2021/07/09 03:34:02;;;;;;;7.20;5.05;;;;;;;19.99;100.00;101452.23;1786973;79;22137;-41
2021/07/09 03:36:33;;;;;;;6.20;5.20;;;;;;;20.03;100.00;101445.55;1781086;79;20946;-43
2021/07/09 03:39:01;;;;;;;6.08;5.47;;;;;;;20.08;100.00;101442.84;1784357;79;20939;-47
2021/07/09 03:41:28;;;;;;;6.28;5.67;;;;;;;20.14;100.00;101447.38;1786444;79;21745;-41
2021/07/09 03:43:54;;;;;;;6.87;5.17;;;;;;;20.18;100.00;101446.12;1782607;79;21414;-42
2021/07/09 03:46:22;;;;;;;7.95;7.05;;;;;;;20.25;100.00;101453.59;1784927;79;20929;-48
2021/07/09 03:48:49;;;;;;;6.62;6.03;;;;;;;20.34;100.00;101453.83;1785098;79;21438;-51
2021/07/09 03:51:16;;;;;;;8.35;6.25;;;;;;;20.40;100.00;101453.30;1779940;79;20899;-47
2021/07/09 03:53:42;;;;;;;8.25;5.67;;;;;;;20.46;100.00;101450.05;1781175;79;20923;-48
2021/07/09 03:56:09;;;;;;;7.78;5.40;;;;;;;20.55;100.00;101451.17;1785946;79;21048;-48
2021/07/09 03:58:35;;;;;;;5.20;4.42;;;;;;;20.62;100.00;101457.28;1783235;79;20973;-45
2021/07/09 04:01:03;;;;;;;8.25;5.37;;;;;;;20.65;100.00;101450.74;1781470;79;21788;-53
2021/07/09 04:03:30;;;;;;;5.20;4.12;;;;;;;20.69;100.00;101457.13;1781098;79;20991;-49
2021/07/09 04:05:57;;;;;;;5.80;4.05;;;;;;;20.77;100.00;101460.53;1751810;80;20965;-52
2021/07/09 04:08:23;;;;;;;7.58;3.77;;;;;;;20.79;100.00;101450.42;1746281;80;20983;-47
2021/07/09 04:10:52;;;;;;;4.15;3.72;;;;;;;20.84;100.00;101449.99;1758864;80;20964;-45
2021/07/09 04:13:18;;;;;;;5.47;4.97;;;;;;;20.88;100.00;101444.18;1757785;80;21031;-46
2021/07/09 04:15:46;;;;;;;6.28;5.08;;;;;;;20.93;100.00;101443.28;1756907;80;21020;-50
2021/07/09 04:18:13;;;;;;;5.53;4.47;;;;;;;21.03;100.00;101450.12;1751115;80;21050;-53
2021/07/09 04:20:41;;;;;;;5.55;4.40;;;;;;;21.10;100.00;101453.16;1755465;80;20972;-52
2021/07/09 04:23:08;;;;;;;7.95;4.28;;;;;;;21.15;100.00;101445.48;1754854;80;20984;-52
2021/07/09 04:25:34;;;;;;;5.58;3.67;;;;;;;21.20;100.00;101450.00;1753899;80;20960;-51
2021/07/09 04:28:01;;;;;;;5.33;3.65;;;;;;;21.25;100.00;101445.53;1760825;80;21043;-55
2021/07/09 04:30:28;;;;;;;4.22;3.33;;;;;;;21.30;100.00;101448.69;1731883;81;20961;-54
2021/07/09 04:32:55;;;;;;;4.37;3.17;;;;;;;21.37;100.00;101444.44;1720825;81;20991;-56
2021/07/09 04:35:21;;;;;;;4.55;2.60;;;;;;;21.44;100.00;101439.34;1752891;80;21409;-56
2021/07/09 04:37:48;;;;;;;3.52;2.52;;;;;;;21.49;100.00;101437.07;1754078;80;20973;-47
2021/07/09 04:40:16;;;;;;;3.42;2.40;;;;;;;21.54;100.00;101431.58;1751358;80;20958;-43
2021/07/09 04:42:42;;;;;;;3.10;2.30;;;;;;;21.59;100.00;101437.95;1759405;80;21467;-51
2021/07/09 04:45:11;;;;;;;3.90;2.67;;;;;;;21.66;100.00;101437.77;1757306;80;20944;-42
2021/07/09 04:47:39;;;;;;;3.30;2.52;;;;;;;21.72;100.00;101439.95;1753905;80;21007;-44
2021/07/09 04:50:08;;;;;;;4.42;2.52;;;;;;;21.76;100.00;101429.66;1753477;80;21309;-43
2021/07/09 04:52:35;;;;;;;2.98;2.60;;;;;;;21.80;100.00;101430.59;1755791;80;20992;-43
2021/07/09 04:55:02;;;;;;;3.87;2.50;;;;;;;21.85;100.00;101437.44;1734584;81;20972;-44
2021/07/09 04:57:30;;;;;;;9.58;2.20;;;;;;;21.91;100.00;101431.47;1758812;80;20972;-45
2021/07/09 04:59:57;;;;;;;3.87;2.70;;;;;;;21.96;100.00;101431.91;1736588;81;21054;-46
2021/07/09 05:02:24;;;;;;;6.70;2.08;;;;;;;22.00;100.00;101429.28;1758631;80;21483;-46
2021/07/09 05:04:52;;;;;;;2.90;2.30;;;;;;;22.04;100.00;101423.91;1755244;80;20957;-47
2021/07/09 05:07:19;;;;;;;4.05;2.20;;;;;;;22.09;100.00;101421.62;1733584;80;20978;-49
2021/07/09 05:09:45;;;;;;;3.65;2.50;;;;;;;22.14;100.00;101419.84;1768501;79;20963;-50
2021/07/09 05:12:12;;;;;;;3.75;2.92;;;;;;;22.19;100.00;101421.62;1779576;79;20980;-43
2021/07/09 05:14:38;;;;;;;6.78;2.70;;;;;;;22.24;100.00;101418.86;1752663;80;20957;-48
2021/07/09 05:17:05;;;;;;;5.30;2.00;;;;;;;22.31;100.00;101416.95;1756783;80;21007;-44
2021/07/09 05:19:32;;;;;;;3.80;2.10;;;;;;;22.36;100.00;101425.52;1755256;80;21013;-49
2021/07/09 05:21:59;;;;;;;3.35;2.35;;;;;;;22.40;100.00;101416.06;1753990;80;20993;-46
2021/07/09 05:24:26;;;;;;;4.22;2.12;;;;;;;22.44;100.00;101417.50;1784082;79;20967;-52
2021/07/09 05:26:54;;;;;;;6.50;2.40;;;;;;;22.49;100.00;101415.72;1764259;79;20954;-51
2021/07/09 05:29:21;;;;;;;8.13;5.35;;;;;;;22.52;100.00;101417.63;1769297;79;20977;-45
2021/07/09 05:31:48;;;;;;;9.38;6.58;;;;;;;22.58;100.00;101418.42;1767331;79;21586;-46
2021/07/09 05:34:14;;;;;;;8.05;4.45;;;;;;;22.62;100.00;101417.11;1772234;79;20980;-42
2021/07/09 05:36:41;;;;;;;3.52;2.37;;;;;;;22.67;100.00;101415.32;1764947;79;20940;-41
2021/07/09 05:39:11;;;;;;;3.52;2.20;;;;;;;22.72;100.00;101418.45;1767149;79;20926;-44
2021/07/09 05:41:38;;;;;;;4.03;1.85;;;;;;;22.76;100.00;101417.17;1767883;79;20971;-43
2021/07/09 05:44:05;;;;;;;6.40;3.30;;;;;;;22.80;100.00;101411.78;1770795;79;21008;-52
2021/07/09 05:46:32;;;;;;;2.35;1.95;;;;;;;22.85;100.00;101416.78;1766591;79;20981;-47
2021/07/09 05:48:59;;;;;;;3.12;1.82;;;;;;;22.91;100.00;101417.56;1759079;79;20940;-49
2021/07/09 05:51:25;;;;;;;2.62;1.92;;;;;;;22.96;100.00;101412.54;1762316;79;20992;-45
2021/07/09 05:53:52;;;;;;;2.27;1.82;;;;;;;23.00;100.00;101405.81;1767382;79;20932;-47
2021/07/09 05:56:19;;;;;;;3.67;2.10;;;;;;;23.06;100.00;101402.52;1770268;79;20941;-49
2021/07/09 05:58:46;;;;;;;4.22;1.92;;;;;;;23.12;100.00;101402.41;1765819;80;20914;-47
2021/07/09 06:01:12;;;;;;;3.55;1.85;;;;;;;23.19;100.00;101406.25;1769175;79;21667;-49
2021/07/09 06:03:48;;;;;;;3.77;1.62;;;;;;;23.26;100.00;101401.94;1763956;79;20955;-44
2021/07/09 06:06:32;;;;;;;3.25;1.52;;;;;;;23.31;100.00;101400.13;1770248;79;20985;-47
2021/07/09 06:09:01;;;;;;;2.37;1.60;;;;;;;23.37;100.00;101398.66;1766886;79;20928;-49
2021/07/09 06:11:29;;;;;;;2.95;1.80;;;;;;;23.42;100.00;101395.83;1753104;80;20963;-51
2021/07/09 06:13:56;;;;;;;2.87;2.02;;;;;;;23.46;100.00;101393.17;1758910;80;20964;-46
2021/07/09 06:16:25;;;;;;;3.02;2.02;;;;;;;23.52;100.00;101394.42;1760002;80;20972;-49
2021/07/09 06:18:53;;;;;;;2.83;1.50;;;;;;;23.58;100.00;101391.58;1755318;80;20953;-45
2021/07/09 06:21:29;;;;;;;2.33;1.90;;;;;;;23.63;100.00;101395.55;1756825;80;21012;-43
2021/07/09 06:23:57;;;;;;;3.47;1.98;;;;;;;23.68;100.00;101387.78;1754378;80;20925;-43
2021/07/09 06:26:23;;;;;;;6.78;4.45;;;;;;;23.74;100.00;101390.45;1736271;81;21011;-43
2021/07/09 06:28:50;;;;;;;3.70;2.70;;;;;;;23.80;100.00;101390.33;1735355;81;20987;-42
2021/07/09 06:31:30;;;;;;;4.95;2.20;;;;;;;23.84;100.00;101383.06;1735265;81;21497;-48
2021/07/09 06:34:05;;;;;;;10.30;2.45;;;;;;;23.92;100.00;101385.02;1736692;81;20991;-54
2021/07/09 06:36:31;;;;;;;2.33;1.82;;;;;;;23.98;100.00;101384.38;1737616;81;21042;-44
2021/07/09 06:38:58;;;;;;;2.65;1.82;;;;;;;24.04;100.00;101380.17;1751008;80;21494;-43
2021/07/09 06:41:25;;;;;;;4.45;1.70;;;;;;;24.09;100.00;101385.52;1750927;80;21024;-44
2021/07/09 06:43:52;;;;;;;2.40;1.80;;;;;;;24.15;100.00;101389.48;1757026;80;20964;-42
2021/07/09 06:46:20;;;;;;;2.27;1.60;;;;;;;24.22;100.00;101381.03;1751894;80;20939;-43
2021/07/09 06:48:47;;;;;;;3.60;2.22;;;;;;;24.29;100.00;101387.58;1751987;80;20962;-42
2021/07/09 06:51:35;;;;;;;3.80;1.52;;;;;;;24.34;100.00;101383.87;1758481;80;20999;-42
2021/07/09 06:54:04;;;;;;;4.67;1.62;;;;;;;24.40;94.70;101382.37;1729004;81;21091;-44
2021/07/09 06:56:30;;;;;;;2.98;1.72;;;;;;;24.47;93.47;101382.61;1730128;81;21434;-45
2021/07/09 06:58:57;;;;;;;4.37;1.62;;;;;;;24.53;94.28;101384.20;1729228;81;21003;-44
2021/07/09 07:01:23;;;;;;;3.55;1.77;;;;;;;24.58;99.63;101381.85;1730505;81;20961;-45
2021/07/09 07:03:50;;;;;;;6.62;2.20;;;;;;;24.65;98.33;101386.68;1728745;81;20975;-44
2021/07/09 07:06:16;;;;;;;3.85;2.30;;;;;;;24.70;89.83;101385.17;1726275;81;21468;-45
2021/07/09 07:08:43;;;;;;;3.92;2.25;;;;;;;24.76;90.67;101382.31;1730427;81;20961;-44
2021/07/09 07:11:09;;;;;;;4.80;1.87;;;;;;;24.82;92.40;101383.89;1730008;81;20978;-42
2021/07/09 07:13:38;;;;;;;2.60;1.82;;;;;;;24.89;84.73;101380.51;1723957;81;21259;-44
2021/07/09 07:16:07;;;;;;;3.58;1.95;;;;;;;24.96;81.39;101380.21;1715967;81;21063;-43
2021/07/09 07:18:34;;;;;;;2.40;1.57;;;;;;;25.02;81.06;101383.16;1718844;81;20983;-48
2021/07/09 07:21:02;;;;;;;2.62;1.70;;;;;;;25.08;82.42;101376.70;1734839;81;21034;-43
2021/07/09 07:23:29;;;;;;;3.02;2.02;;;;;;;25.15;81.11;101379.09;1738998;81;20967;-45
2021/07/09 07:25:56;;;;;;;2.15;1.50;;;;;;;25.20;84.43;101372.19;1736847;81;21481;-43
2021/07/09 07:30:59;;;;;;;2.55;1.25;;;;;;;25.37;73.50;101359.95;1798473;78;22263;-44
2021/07/09 07:33:27;;;;;;;1.75;1.32;;;;;;;25.42;72.42;101363.04;1769043;79;21023;-48
2021/07/09 07:35:54;;;;;;;2.80;2.10;;;;;;;25.47;69.56;101364.77;1770159;79;21018;-48
2021/07/09 07:38:20;;;;;;;1.67;1.45;;;;;;;25.56;68.84;101366.50;1771341;79;21664;-48
2021/07/09 07:40:47;;;;;;;2.30;1.67;;;;;;;25.61;69.50;101356.45;1773334;79;20987;-47
2021/07/09 07:43:14;;;;;;;5.33;2.67;;;;;;;25.66;69.77;101352.71;1769505;79;21026;-47
2021/07/09 07:45:42;;;;;;;2.55;1.72;;;;;;;25.69;69.22;101345.02;1772161;79;20974;-44
2021/07/09 07:48:08;;;;;;;3.67;1.20;;;;;;;25.74;67.20;101345.05;1775181;79;20943;-45
2021/07/09 07:50:35;;;;;;;2.00;1.20;;;;;;;25.78;65.06;101346.39;1769819;79;21364;-45
2021/07/09 07:53:02;;;;;;;1.70;1.47;;;;;;;25.81;65.50;101339.25;1733733;81;20975;-48
2021/07/09 07:55:29;;;;;;;2.98;1.70;;;;;;;25.87;68.40;101338.08;1723292;81;20956;-48
2021/07/09 07:57:56;;;;;;;6.28;1.80;;;;;;;25.93;67.14;101342.52;1718104;82;21456;-51
2021/07/09 08:00:22;;;;;;;2.90;1.45;;;;;;;25.97;65.02;101337.92;1710993;81;21102;-61
2021/07/09 08:02:49;;;;;;;3.20;1.42;;;;;;;26.02;66.75;101339.63;1701704;82;20995;-44
2021/07/09 08:05:16;;;;;;;3.47;1.92;;;;;;;26.07;65.93;101333.14;1700737;83;20975;-47
2021/07/09 08:07:43;;;;;;;2.30;1.62;;;;;;;26.12;64.93;101336.21;1699988;83;21438;-46
2021/07/09 08:10:10;;;;;;;3.17;2.08;;;;;;;26.18;67.39;101337.92;1700368;82;20996;-45
2021/07/09 08:12:38;;;;;;;2.83;1.92;;;;;;;26.22;64.30;101340.66;1702336;83;21046;-45
2021/07/09 08:15:07;;;;;;;2.12;1.50;;;;;;;26.28;60.18;101335.86;1697994;82;20947;-45
2021/07/09 08:17:36;;;;;;;2.17;1.37;;;;;;;26.33;56.35;101341.66;1702299;83;20975;-45
2021/07/09 08:20:06;;;;;;;;;;;;;;;26.36;58.92;101335.00;1705807;83;21003;-44
2021/07/09 08:22:32;;;;;;;1.82;1.10;;;;;;;26.39;57.94;101331.42;1698441;83;20150;-44
2021/07/09 08:24:59;;;;;;;2.60;1.42;;;;;;;26.43;55.17;101340.97;1703753;83;20974;-45
2021/07/09 08:27:26;;;;;;;1.70;1.27;;;;;;;26.48;58.83;101338.56;1699787;82;20976;-51
2021/07/09 08:29:52;;;;;;;1.42;1.00;;;;;;;26.53;55.84;101336.23;1692187;83;20995;-51
2021/07/09 08:32:19;;;;;;;3.72;1.67;;;;;;;26.58;55.62;101329.36;1686252;83;21558;-58
2021/07/09 08:34:46;;;;;;;2.87;1.62;;;;;;;26.63;56.62;101322.86;1689234;83;20988;-54
2021/07/09 08:37:13;;;;;;;2.27;1.30;;;;;;;26.69;57.25;101316.70;1687354;83;20976;-51
2021/07/09 08:39:39;;;;;;;1.77;1.40;;;;;;;26.73;60.59;101316.16;1744520;81;20979;-48
2021/07/09 08:42:07;;;;;;;3.60;1.55;;;;;;;26.76;56.81;101314.45;1741297;80;20944;-51
2021/07/09 08:44:34;;;;;;;3.30;2.10;;;;;;;26.80;53.27;101318.20;1735114;81;20968;-46
2021/07/09 08:47:02;;;;;;;2.75;1.42;;;;;;;26.84;51.92;101312.20;1743675;81;22020;-44
2021/07/09 08:49:28;;;;;;;1.62;1.42;;;;;;;26.88;55.80;101308.07;1742007;80;21479;-44
2021/07/09 08:51:55;;;;;;;2.27;1.40;;;;;;;26.93;54.13;101306.17;1744769;81;20957;-46
2021/07/09 08:54:21;;;;;;;6.92;3.05;;;;;;;27.01;54.45;101299.81;1734198;81;21473;-46
2021/07/09 08:56:48;;;;;;;3.50;1.67;;;;;;;27.06;55.32;101300.13;1737234;81;21844;-46
2021/07/09 08:59:15;;;;;;;2.42;1.60;;;;;;;27.10;56.15;101297.39;1746333;80;21008;-53
2021/07/09 09:01:53;;;;;;;3.27;1.47;;;;;;;27.16;56.46;101306.23;1740292;81;20964;-45
2021/07/09 09:04:35;;;;;;;3.90;1.60;;;;;;;27.20;53.97;101300.79;1726027;81;21440;-52
2021/07/09 09:07:08;;;;;;;3.65;1.50;;;;;;;27.22;49.94;101290.52;1683656;83;20925;-59
2021/07/09 09:09:37;;;;;;;4.22;2.47;;;;;;;27.26;52.44;101297.84;1669960;84;21045;-54
2021/07/09 09:12:14;;;;;;;1.92;1.60;;;;;;;27.29;53.43;101288.77;1675147;84;20964;-61
2021/07/09 09:14:46;;;;;;;2.15;1.57;;;;;;;27.30;49.29;101287.73;1743181;80;21020;-50
2021/07/09 09:17:32;;;;;;;2.45;1.25;;;;;;;27.33;50.28;101285.99;1744042;81;21498;-51
2021/07/09 09:20:10;;;;;;;2.85;1.50;;;;;;;27.37;50.71;101281.88;1741478;81;20975;-52
2021/07/09 09:22:50;;;;;;;4.60;1.95;;;;;;;27.41;48.36;101282.34;1740925;81;20936;-50
2021/07/09 09:25:18;;;;;;;2.62;1.50;;;;;;;27.45;51.64;101285.08;1742012;81;20972;-44
2021/07/09 09:28:04;;;;;;;3.05;1.95;;;;;;;27.49;50.86;101275.97;1744028;81;20984;-49
2021/07/09 09:30:32;;;;;;;5.58;1.75;;;;;;;27.53;52.70;101278.69;1741929;81;20963;-42
2021/07/09 09:33:02;;;;;;;3.05;1.77;;;;;;;27.57;50.01;101279.52;1746999;81;21440;-50
2021/07/09 09:35:31;;;;;;;1.35;1.22;;;;;;;27.59;47.18;101278.83;1740735;81;20964;-48
2021/07/09 09:38:00;;;;;;;3.45;1.70;;;;;;;27.63;48.25;101277.93;1739665;81;20940;-48
2021/07/09 09:40:28;;;;;;;3.75;1.47;;;;;;;27.66;48.02;101280.82;1732876;80;20957;-48
2021/07/09 09:42:54;;;;;;;2.42;1.35;;;;;;;27.70;50.27;101278.06;1737159;81;21419;-48
2021/07/09 09:45:24;;;;;;;3.75;1.22;;;;;;;27.74;51.20;101280.22;1741628;81;21008;-46
2021/07/09 09:47:51;;;;;;;1.57;1.32;;;;;;;27.77;49.44;101272.16;1742363;81;21236;-48
2021/07/09 09:50:20;;;;;;;3.83;1.90;;;;;;;27.82;45.88;101264.27;1736610;81;21021;-44
2021/07/09 09:52:51;;;;;;;2.33;1.27;;;;;;;27.85;48.49;101264.45;1741583;81;20920;-48
2021/07/09 09:55:21;;;;;;;7.05;3.60;;;;;;;27.88;48.27;101265.45;1735719;81;20975;-46
2021/07/09 09:57:51;;;;;;;3.20;2.10;;;;;;;27.91;49.73;101266.44;1737122;80;20953;-48
2021/07/09 10:00:24;;;;;;;;;;;;;;;27.94;48.43;101259.21;1740850;81;21023;-51
2021/07/09 10:02:51;;;;;;;2.37;1.52;;;;;;;27.98;47.31;101263.30;1744297;81;20127;-47
2021/07/09 10:05:17;;;;;;;3.25;1.47;;;;;;;28.00;44.55;101261.23;1741543;81;21027;-43
2021/07/09 10:07:44;;;;;;;3.33;1.75;;;;;;;28.02;45.04;101260.50;1734908;80;20933;-43
2021/07/09 10:10:11;;;;;;;2.55;1.90;;;;;;;28.02;44.67;101262.75;1739139;80;20937;-46
2021/07/09 10:12:38;;;;;;;3.02;1.35;;;;;;;28.04;45.02;101255.16;1743574;81;20959;-47
2021/07/09 10:15:07;;;;;;;3.50;2.08;;;;;;;28.09;44.90;101254.61;1740753;81;20960;-46
2021/07/09 10:17:34;;;;;;;4.03;1.42;;;;;;;28.13;45.34;101257.33;1740470;81;20972;-46
2021/07/09 10:20:01;;;;;;;2.50;1.65;;;;;;;28.17;43.30;101256.42;1743324;81;20995;-46
2021/07/09 10:22:28;;;;;;;2.83;1.95;;;;;;;28.18;43.08;101253.50;1737481;80;20963;-45
2021/07/09 10:24:55;;;;;;;3.85;2.17;;;;;;;28.21;44.80;101248.17;1737983;81;20992;-49
2021/07/09 10:27:24;;;;;;;1.98;1.55;;;;;;;28.21;42.26;101244.90;1744387;80;21442;-50
2021/07/09 10:29:53;;;;;;;2.42;1.40;;;;;;;28.23;42.82;101239.24;1742078;82;21022;-46
2021/07/09 10:32:38;;;;;;;3.15;1.70;;;;;;;28.25;44.47;101235.80;1751476;81;20977;-47
2021/07/09 10:35:07;;;;;;;1.70;1.60;;;;;;;28.29;52.73;101237.11;1749436;81;20965;-46
2021/07/09 10:37:33;;;;;;;2.52;1.92;;;;;;;28.33;45.13;101229.38;1721396;82;20944;-45
2021/07/09 10:40:15;;;;;;;2.05;1.72;;;;;;;28.35;47.95;101229.52;1748054;81;21017;-45
2021/07/09 10:42:43;;;;;;;3.05;1.50;;;;;;;28.36;48.62;101229.84;1745776;81;20968;-47
2021/07/09 10:45:20;;;;;;;4.28;1.95;;;;;;;28.40;54.13;101224.32;1745363;81;21471;-46
2021/07/09 10:48:06;;;;;;;2.60;1.15;;;;;;;28.43;47.15;101222.56;1748921;81;20967;-46
2021/07/09 10:50:46;;;;;;;4.87;1.90;;;;;;;28.44;45.10;101216.06;1749013;81;20941;-46
2021/07/09 10:53:18;;;;;;;;;;;;;;;28.48;48.39;101220.13;1751617;81;21318;-51
2021/07/09 10:56:12;;;;;;;2.62;1.60;;;;;;;28.52;46.69;101215.11;1751268;81;20102;-50
2021/07/09 10:58:44;;;;;;;3.05;1.72;;;;;;;28.54;48.68;101211.66;1748248;81;21021;-49
2021/07/09 11:01:18;;;;;;;2.08;1.50;;;;;;;28.56;46.09;101204.10;1749603;81;21597;-47
2021/07/09 11:04:02;;;;;;;3.60;1.62;;;;;;;28.57;43.20;101198.09;1752429;81;20976;-46
2021/07/09 11:06:40;;;;;;;1.90;1.52;;;;;;;28.58;46.52;101193.80;1745354;80;21591;-46
2021/07/09 11:09:11;;;;;;;2.80;1.87;;;;;;;28.61;45.40;101198.89;1748147;81;20979;-46
2021/07/09 11:11:54;;;;;;;5.87;1.55;;;;;;;28.64;44.88;101197.66;1748034;81;20975;-45
2021/07/09 11:14:37;;;;;;;2.92;1.52;;;;;;;28.64;43.07;101192.17;1749857;81;21027;-46
2021/07/09 11:17:21;;;;;;;2.50;1.60;;;;;;;28.65;44.79;101192.49;1749538;81;21015;-44
2021/07/09 11:19:49;;;;;;;2.17;1.70;;;;;;;28.65;43.14;101186.51;1750449;81;21506;-43
2021/07/09 11:22:16;;;;;;;3.70;2.10;;;;;;;28.66;43.23;101188.20;1747637;81;20960;-44
2021/07/09 11:24:53;;;;;;;1.85;1.67;;;;;;;28.67;43.62;101180.28;1722379;81;20956;-44
2021/07/09 11:27:24;;;;;;;2.80;2.10;;;;;;;28.69;43.22;101187.80;1750614;81;20967;-44
2021/07/09 11:29:50;;;;;;;4.92;1.55;;;;;;;28.71;44.82;101177.19;1746678;80;20976;-44
2021/07/09 11:32:21;;;;;;;5.87;2.72;;;;;;;28.73;47.01;101172.33;1740250;80;20987;-45